sensor_id;sensor_type;location;lat;lon;timestamp;P1;durP1;ratioP1;P2;durP2;ratioP2
609;SDS011;292;48.800;9.216;2022-12-18T00:02:18;109.93;;;34.05;;
609;SDS011;292;48.800;9.216;2022-12-18T00:04:48;118.95;;;34.45;;
609;SDS011;292;48.800;9.216;2022-12-18T00:07:15;82.38;;;28.77;;
609;SDS011;292;48.800;9.216;2022-12-18T00:09:43;95.88;;;30.38;;
609;SDS011;292;48.800;9.216;2022-12-18T00:12:10;118.45;;;34.90;;
609;SDS011;292;48.800;9.216;2022-12-18T00:14:38;108.53;;;32.13;;
609;SDS011;292;48.800;9.216;2022-12-18T00:17:06;120.43;;;34.17;;
609;SDS011;292;48.800;9.216;2022-12-18T00:19:33;108.05;;;34.25;;
609;SDS011;292;48.800;9.216;2022-12-18T00:22:02;94.88;;;30.95;;
609;SDS011;292;48.800;9.216;2022-12-18T00:24:29;108.43;;;33.72;;
609;SDS011;292;48.800;9.216;2022-12-18T00:26:56;184.05;;;54.30;;
609;SDS011;292;48.800;9.216;2022-12-18T00:29:24;143.20;;;41.28;;
609;SDS011;292;48.800;9.216;2022-12-18T00:31:51;108.90;;;32.63;;
609;SDS011;292;48.800;9.216;2022-12-18T00:34:19;121.47;;;35.42;;
609;SDS011;292;48.800;9.216;2022-12-18T00:36:47;104.93;;;30.13;;
609;SDS011;292;48.800;9.216;2022-12-18T00:39:16;115.78;;;32.65;;
609;SDS011;292;48.800;9.216;2022-12-18T00:41:43;95.20;;;29.95;;
609;SDS011;292;48.800;9.216;2022-12-18T00:44:28;129.85;;;32.55;;
609;SDS011;292;48.800;9.216;2022-12-18T00:46:56;100.50;;;31.90;;
609;SDS011;292;48.800;9.216;2022-12-18T00:49:23;108.90;;;33.70;;
609;SDS011;292;48.800;9.216;2022-12-18T00:51:50;105.95;;;32.13;;
609;SDS011;292;48.800;9.216;2022-12-18T00:54:19;106.45;;;31.80;;
609;SDS011;292;48.800;9.216;2022-12-18T00:56:46;95.57;;;28.77;;
609;SDS011;292;48.800;9.216;2022-12-18T00:59:13;118.85;;;34.75;;
609;SDS011;292;48.800;9.216;2022-12-18T01:01:41;108.70;;;33.10;;
609;SDS011;292;48.800;9.216;2022-12-18T01:04:09;134.20;;;36.97;;
609;SDS011;292;48.800;9.216;2022-12-18T01:06:36;93.45;;;30.08;;
609;SDS011;292;48.800;9.216;2022-12-18T01:09:04;97.72;;;30.95;;
609;SDS011;292;48.800;9.216;2022-12-18T01:11:32;103.15;;;30.75;;
609;SDS011;292;48.800;9.216;2022-12-18T01:13:59;96.50;;;28.80;;
609;SDS011;292;48.800;9.216;2022-12-18T01:16:26;105.53;;;32.58;;
609;SDS011;292;48.800;9.216;2022-12-18T01:18:53;101.53;;;31.25;;
609;SDS011;292;48.800;9.216;2022-12-18T01:21:21;107.28;;;31.17;;
609;SDS011;292;48.800;9.216;2022-12-18T01:23:53;114.93;;;32.63;;
609;SDS011;292;48.800;9.216;2022-12-18T01:26:21;119.07;;;31.85;;
609;SDS011;292;48.800;9.216;2022-12-18T01:28:51;102.65;;;31.73;;
609;SDS011;292;48.800;9.216;2022-12-18T01:31:20;97.93;;;30.00;;
609;SDS011;292;48.800;9.216;2022-12-18T01:33:48;94.93;;;29.70;;
609;SDS011;292;48.800;9.216;2022-12-18T01:36:17;93.40;;;30.30;;
609;SDS011;292;48.800;9.216;2022-12-18T01:38:45;109.70;;;29.63;;
609;SDS011;292;48.800;9.216;2022-12-18T01:41:13;108.13;;;29.98;;
609;SDS011;292;48.800;9.216;2022-12-18T01:43:42;103.53;;;28.40;;
609;SDS011;292;48.800;9.216;2022-12-18T01:46:16;114.80;;;30.23;;
609;SDS011;292;48.800;9.216;2022-12-18T01:48:44;106.15;;;29.80;;
609;SDS011;292;48.800;9.216;2022-12-18T01:51:13;109.20;;;30.15;;
609;SDS011;292;48.800;9.216;2022-12-18T01:53:41;102.22;;;30.63;;
609;SDS011;292;48.800;9.216;2022-12-18T01:56:12;98.85;;;27.98;;
609;SDS011;292;48.800;9.216;2022-12-18T01:58:44;100.55;;;27.60;;
609;SDS011;292;48.800;9.216;2022-12-18T02:01:19;107.25;;;31.08;;
609;SDS011;292;48.800;9.216;2022-12-18T02:03:47;112.68;;;30.40;;
609;SDS011;292;48.800;9.216;2022-12-18T02:06:15;94.22;;;29.85;;
609;SDS011;292;48.800;9.216;2022-12-18T02:08:53;101.40;;;29.80;;
609;SDS011;292;48.800;9.216;2022-12-18T02:11:31;93.05;;;29.50;;
609;SDS011;292;48.800;9.216;2022-12-18T02:14:08;105.85;;;30.15;;
609;SDS011;292;48.800;9.216;2022-12-18T02:16:47;98.38;;;29.17;;
609;SDS011;292;48.800;9.216;2022-12-18T02:19:35;109.72;;;30.13;;
609;SDS011;292;48.800;9.216;2022-12-18T02:22:12;98.18;;;30.75;;
609;SDS011;292;48.800;9.216;2022-12-18T02:24:53;92.13;;;27.38;;
609;SDS011;292;48.800;9.216;2022-12-18T02:27:30;91.43;;;28.33;;
609;SDS011;292;48.800;9.216;2022-12-18T02:30:00;86.95;;;26.08;;
609;SDS011;292;48.800;9.216;2022-12-18T02:32:30;101.40;;;29.05;;
609;SDS011;292;48.800;9.216;2022-12-18T02:35:01;97.13;;;28.42;;
609;SDS011;292;48.800;9.216;2022-12-18T02:37:31;108.45;;;28.02;;
609;SDS011;292;48.800;9.216;2022-12-18T02:40:00;83.47;;;26.60;;
609;SDS011;292;48.800;9.216;2022-12-18T02:42:31;101.10;;;28.52;;
609;SDS011;292;48.800;9.216;2022-12-18T02:44:59;90.05;;;26.80;;
609;SDS011;292;48.800;9.216;2022-12-18T02:47:27;87.25;;;27.20;;
609;SDS011;292;48.800;9.216;2022-12-18T02:50:02;94.18;;;25.20;;
609;SDS011;292;48.800;9.216;2022-12-18T02:52:39;83.82;;;25.88;;
609;SDS011;292;48.800;9.216;2022-12-18T02:55:16;94.00;;;27.52;;
609;SDS011;292;48.800;9.216;2022-12-18T02:57:53;81.47;;;25.27;;
609;SDS011;292;48.800;9.216;2022-12-18T03:00:23;90.65;;;26.52;;
609;SDS011;292;48.800;9.216;2022-12-18T03:02:54;83.72;;;25.85;;
609;SDS011;292;48.800;9.216;2022-12-18T03:05:28;93.70;;;26.98;;
609;SDS011;292;48.800;9.216;2022-12-18T03:08:01;90.78;;;27.77;;
609;SDS011;292;48.800;9.216;2022-12-18T03:10:32;81.95;;;25.10;;
609;SDS011;292;48.800;9.216;2022-12-18T03:13:06;93.53;;;26.55;;
609;SDS011;292;48.800;9.216;2022-12-18T03:15:36;87.90;;;27.40;;
609;SDS011;292;48.800;9.216;2022-12-18T03:18:07;82.18;;;26.23;;
609;SDS011;292;48.800;9.216;2022-12-18T03:20:39;81.18;;;25.90;;
609;SDS011;292;48.800;9.216;2022-12-18T03:23:10;94.10;;;27.90;;
609;SDS011;292;48.800;9.216;2022-12-18T03:25:42;83.75;;;26.25;;
609;SDS011;292;48.800;9.216;2022-12-18T03:28:13;91.20;;;27.75;;
609;SDS011;292;48.800;9.216;2022-12-18T03:30:44;93.50;;;26.50;;
609;SDS011;292;48.800;9.216;2022-12-18T03:33:15;85.55;;;25.83;;
609;SDS011;292;48.800;9.216;2022-12-18T03:35:44;84.05;;;24.75;;
609;SDS011;292;48.800;9.216;2022-12-18T03:38:11;82.68;;;25.80;;
609;SDS011;292;48.800;9.216;2022-12-18T03:40:43;90.03;;;26.10;;
609;SDS011;292;48.800;9.216;2022-12-18T03:43:20;98.32;;;26.73;;
609;SDS011;292;48.800;9.216;2022-12-18T03:45:55;88.35;;;27.38;;
609;SDS011;292;48.800;9.216;2022-12-18T03:48:30;99.60;;;29.70;;
609;SDS011;292;48.800;9.216;2022-12-18T03:51:05;89.45;;;27.15;;
609;SDS011;292;48.800;9.216;2022-12-18T03:53:35;91.60;;;26.40;;
609;SDS011;292;48.800;9.216;2022-12-18T03:56:06;72.97;;;23.17;;
609;SDS011;292;48.800;9.216;2022-12-18T03:58:37;88.90;;;25.67;;
609;SDS011;292;48.800;9.216;2022-12-18T04:01:06;87.55;;;25.90;;
609;SDS011;292;48.800;9.216;2022-12-18T04:03:36;93.32;;;26.70;;
609;SDS011;292;48.800;9.216;2022-12-18T04:06:05;85.72;;;23.70;;
609;SDS011;292;48.800;9.216;2022-12-18T04:08:33;96.68;;;26.52;;
609;SDS011;292;48.800;9.216;2022-12-18T04:11:01;91.53;;;27.60;;
609;SDS011;292;48.800;9.216;2022-12-18T04:13:29;97.47;;;27.70;;
609;SDS011;292;48.800;9.216;2022-12-18T04:16:00;82.00;;;25.15;;
609;SDS011;292;48.800;9.216;2022-12-18T04:18:27;87.95;;;26.35;;
609;SDS011;292;48.800;9.216;2022-12-18T04:20:54;92.85;;;26.80;;
609;SDS011;292;48.800;9.216;2022-12-18T04:23:21;81.35;;;25.50;;
609;SDS011;292;48.800;9.216;2022-12-18T04:25:48;83.15;;;24.73;;
609;SDS011;292;48.800;9.216;2022-12-18T04:28:15;81.43;;;24.50;;
609;SDS011;292;48.800;9.216;2022-12-18T04:30:42;89.70;;;24.67;;
609;SDS011;292;48.800;9.216;2022-12-18T04:33:11;86.32;;;24.27;;
609;SDS011;292;48.800;9.216;2022-12-18T04:35:43;86.35;;;24.25;;
609;SDS011;292;48.800;9.216;2022-12-18T04:38:10;76.25;;;22.25;;
609;SDS011;292;48.800;9.216;2022-12-18T04:40:37;87.90;;;23.27;;
609;SDS011;292;48.800;9.216;2022-12-18T04:43:04;83.40;;;23.25;;
609;SDS011;292;48.800;9.216;2022-12-18T04:45:31;78.15;;;24.33;;
609;SDS011;292;48.800;9.216;2022-12-18T04:47:59;71.03;;;22.02;;
609;SDS011;292;48.800;9.216;2022-12-18T04:50:28;72.70;;;22.50;;
609;SDS011;292;48.800;9.216;2022-12-18T04:52:56;68.78;;;23.33;;
609;SDS011;292;48.800;9.216;2022-12-18T04:55:23;78.28;;;24.73;;
609;SDS011;292;48.800;9.216;2022-12-18T04:57:50;75.00;;;22.38;;
609;SDS011;292;48.800;9.216;2022-12-18T05:00:18;84.30;;;24.00;;
609;SDS011;292;48.800;9.216;2022-12-18T05:02:45;82.90;;;24.30;;
609;SDS011;292;48.800;9.216;2022-12-18T05:05:12;92.22;;;25.27;;
609;SDS011;292;48.800;9.216;2022-12-18T05:07:41;88.45;;;25.63;;
609;SDS011;292;48.800;9.216;2022-12-18T05:10:09;82.80;;;23.20;;
609;SDS011;292;48.800;9.216;2022-12-18T05:12:36;76.82;;;23.77;;
609;SDS011;292;48.800;9.216;2022-12-18T05:15:23;76.28;;;25.25;;
609;SDS011;292;48.800;9.216;2022-12-18T05:17:50;81.07;;;24.83;;
609;SDS011;292;48.800;9.216;2022-12-18T05:20:17;71.20;;;23.17;;
609;SDS011;292;48.800;9.216;2022-12-18T05:22:46;85.57;;;24.30;;
609;SDS011;292;48.800;9.216;2022-12-18T05:25:13;79.20;;;23.35;;
609;SDS011;292;48.800;9.216;2022-12-18T05:27:40;77.93;;;22.83;;
609;SDS011;292;48.800;9.216;2022-12-18T05:30:08;75.95;;;25.02;;
609;SDS011;292;48.800;9.216;2022-12-18T05:32:36;85.78;;;23.15;;
609;SDS011;292;48.800;9.216;2022-12-18T05:35:04;76.43;;;25.15;;
609;SDS011;292;48.800;9.216;2022-12-18T05:37:32;75.13;;;22.33;;
609;SDS011;292;48.800;9.216;2022-12-18T05:40:01;78.28;;;20.98;;
609;SDS011;292;48.800;9.216;2022-12-18T05:42:29;74.00;;;23.50;;
609;SDS011;292;48.800;9.216;2022-12-18T05:44:57;77.95;;;24.05;;
609;SDS011;292;48.800;9.216;2022-12-18T05:47:24;81.72;;;24.92;;
609;SDS011;292;48.800;9.216;2022-12-18T05:49:51;77.50;;;22.95;;
609;SDS011;292;48.800;9.216;2022-12-18T05:52:17;76.35;;;21.48;;
609;SDS011;292;48.800;9.216;2022-12-18T05:54:44;80.90;;;22.40;;
609;SDS011;292;48.800;9.216;2022-12-18T05:57:13;74.00;;;22.75;;
609;SDS011;292;48.800;9.216;2022-12-18T05:59:40;63.30;;;21.20;;
609;SDS011;292;48.800;9.216;2022-12-18T06:02:07;60.08;;;20.52;;
609;SDS011;292;48.800;9.216;2022-12-18T06:04:34;73.13;;;22.23;;
609;SDS011;292;48.800;9.216;2022-12-18T06:07:01;77.85;;;24.05;;
609;SDS011;292;48.800;9.216;2022-12-18T06:09:29;60.60;;;20.25;;
609;SDS011;292;48.800;9.216;2022-12-18T06:11:57;86.97;;;24.35;;
609;SDS011;292;48.800;9.216;2022-12-18T06:14:25;73.47;;;21.92;;
609;SDS011;292;48.800;9.216;2022-12-18T06:16:52;78.72;;;22.75;;
609;SDS011;292;48.800;9.216;2022-12-18T06:19:19;71.65;;;21.10;;
609;SDS011;292;48.800;9.216;2022-12-18T06:21:46;79.22;;;22.77;;
609;SDS011;292;48.800;9.216;2022-12-18T06:24:14;64.82;;;23.58;;
609;SDS011;292;48.800;9.216;2022-12-18T06:26:41;68.75;;;22.60;;
609;SDS011;292;48.800;9.216;2022-12-18T06:29:08;83.82;;;22.75;;
609;SDS011;292;48.800;9.216;2022-12-18T06:31:36;71.53;;;22.15;;
609;SDS011;292;48.800;9.216;2022-12-18T06:34:04;75.50;;;22.98;;
609;SDS011;292;48.800;9.216;2022-12-18T06:36:31;72.38;;;21.75;;
609;SDS011;292;48.800;9.216;2022-12-18T06:38:58;66.88;;;20.58;;
609;SDS011;292;48.800;9.216;2022-12-18T06:41:25;67.97;;;18.75;;
609;SDS011;292;48.800;9.216;2022-12-18T06:43:52;75.57;;;22.17;;
609;SDS011;292;48.800;9.216;2022-12-18T06:46:20;66.88;;;19.42;;
609;SDS011;292;48.800;9.216;2022-12-18T06:48:49;65.15;;;19.00;;
609;SDS011;292;48.800;9.216;2022-12-18T06:51:17;65.95;;;19.20;;
609;SDS011;292;48.800;9.216;2022-12-18T06:53:45;67.25;;;21.30;;
609;SDS011;292;48.800;9.216;2022-12-18T06:56:12;69.88;;;21.42;;
609;SDS011;292;48.800;9.216;2022-12-18T06:58:39;60.60;;;19.95;;
609;SDS011;292;48.800;9.216;2022-12-18T07:01:07;56.35;;;18.15;;
609;SDS011;292;48.800;9.216;2022-12-18T07:03:36;65.72;;;20.23;;
609;SDS011;292;48.800;9.216;2022-12-18T07:06:05;76.05;;;22.02;;
609;SDS011;292;48.800;9.216;2022-12-18T07:08:38;71.82;;;22.05;;
609;SDS011;292;48.800;9.216;2022-12-18T07:11:05;62.22;;;19.27;;
609;SDS011;292;48.800;9.216;2022-12-18T07:13:32;64.57;;;20.83;;
609;SDS011;292;48.800;9.216;2022-12-18T07:16:03;69.68;;;21.30;;
609;SDS011;292;48.800;9.216;2022-12-18T07:18:34;55.80;;;20.25;;
609;SDS011;292;48.800;9.216;2022-12-18T07:21:05;60.88;;;19.70;;
609;SDS011;292;48.800;9.216;2022-12-18T07:23:34;68.88;;;20.65;;
609;SDS011;292;48.800;9.216;2022-12-18T07:26:02;80.97;;;22.77;;
609;SDS011;292;48.800;9.216;2022-12-18T07:28:30;61.88;;;21.38;;
609;SDS011;292;48.800;9.216;2022-12-18T07:30:57;61.30;;;19.92;;
609;SDS011;292;48.800;9.216;2022-12-18T07:33:25;63.28;;;19.67;;
609;SDS011;292;48.800;9.216;2022-12-18T07:35:52;75.15;;;20.90;;
609;SDS011;292;48.800;9.216;2022-12-18T07:38:21;65.93;;;21.75;;
609;SDS011;292;48.800;9.216;2022-12-18T07:40:48;63.63;;;19.88;;
609;SDS011;292;48.800;9.216;2022-12-18T07:43:15;61.92;;;19.88;;
609;SDS011;292;48.800;9.216;2022-12-18T07:45:42;61.08;;;19.80;;
609;SDS011;292;48.800;9.216;2022-12-18T07:48:10;59.17;;;19.85;;
609;SDS011;292;48.800;9.216;2022-12-18T07:50:37;56.90;;;18.70;;
609;SDS011;292;48.800;9.216;2022-12-18T07:53:04;62.42;;;19.48;;
609;SDS011;292;48.800;9.216;2022-12-18T07:55:33;61.08;;;19.58;;
609;SDS011;292;48.800;9.216;2022-12-18T07:58:01;58.45;;;20.20;;
609;SDS011;292;48.800;9.216;2022-12-18T08:00:28;73.85;;;22.15;;
609;SDS011;292;48.800;9.216;2022-12-18T08:02:55;63.47;;;20.65;;
609;SDS011;292;48.800;9.216;2022-12-18T08:05:23;58.35;;;17.10;;
609;SDS011;292;48.800;9.216;2022-12-18T08:07:50;62.72;;;19.27;;
609;SDS011;292;48.800;9.216;2022-12-18T08:10:17;78.88;;;22.15;;
609;SDS011;292;48.800;9.216;2022-12-18T08:12:45;67.22;;;20.80;;
609;SDS011;292;48.800;9.216;2022-12-18T08:15:15;71.25;;;23.27;;
609;SDS011;292;48.800;9.216;2022-12-18T08:17:43;69.55;;;21.30;;
609;SDS011;292;48.800;9.216;2022-12-18T08:20:10;65.78;;;21.80;;
609;SDS011;292;48.800;9.216;2022-12-18T08:22:38;60.67;;;20.80;;
609;SDS011;292;48.800;9.216;2022-12-18T08:25:06;81.63;;;23.70;;
609;SDS011;292;48.800;9.216;2022-12-18T08:27:34;70.85;;;22.80;;
609;SDS011;292;48.800;9.216;2022-12-18T08:30:02;62.72;;;21.42;;
609;SDS011;292;48.800;9.216;2022-12-18T08:32:30;62.35;;;20.50;;
609;SDS011;292;48.800;9.216;2022-12-18T08:34:57;67.60;;;20.17;;
609;SDS011;292;48.800;9.216;2022-12-18T08:37:25;64.97;;;21.67;;
609;SDS011;292;48.800;9.216;2022-12-18T08:39:52;79.25;;;23.92;;
609;SDS011;292;48.800;9.216;2022-12-18T08:42:18;77.05;;;22.45;;
609;SDS011;292;48.800;9.216;2022-12-18T08:45:05;75.55;;;22.52;;
609;SDS011;292;48.800;9.216;2022-12-18T08:47:32;70.18;;;22.48;;
609;SDS011;292;48.800;9.216;2022-12-18T08:49:59;61.13;;;19.67;;
609;SDS011;292;48.800;9.216;2022-12-18T08:52:27;68.97;;;22.10;;
609;SDS011;292;48.800;9.216;2022-12-18T08:54:54;69.47;;;23.00;;
609;SDS011;292;48.800;9.216;2022-12-18T08:57:21;65.22;;;22.08;;
609;SDS011;292;48.800;9.216;2022-12-18T08:59:48;68.50;;;21.30;;
609;SDS011;292;48.800;9.216;2022-12-18T09:02:16;77.88;;;23.30;;
609;SDS011;292;48.800;9.216;2022-12-18T09:04:45;76.15;;;21.85;;
609;SDS011;292;48.800;9.216;2022-12-18T09:07:13;59.40;;;19.40;;
609;SDS011;292;48.800;9.216;2022-12-18T09:09:40;80.93;;;26.23;;
609;SDS011;292;48.800;9.216;2022-12-18T09:12:07;82.18;;;22.45;;
609;SDS011;292;48.800;9.216;2022-12-18T09:14:34;72.05;;;24.00;;
609;SDS011;292;48.800;9.216;2022-12-18T09:17:01;68.05;;;21.15;;
609;SDS011;292;48.800;9.216;2022-12-18T09:19:30;74.38;;;22.50;;
609;SDS011;292;48.800;9.216;2022-12-18T09:21:57;62.65;;;21.38;;
609;SDS011;292;48.800;9.216;2022-12-18T09:24:24;63.25;;;21.75;;
609;SDS011;292;48.800;9.216;2022-12-18T09:26:52;60.08;;;21.17;;
609;SDS011;292;48.800;9.216;2022-12-18T09:29:20;61.60;;;20.92;;
609;SDS011;292;48.800;9.216;2022-12-18T09:31:47;66.78;;;23.23;;
609;SDS011;292;48.800;9.216;2022-12-18T09:34:14;77.43;;;23.70;;
609;SDS011;292;48.800;9.216;2022-12-18T09:36:44;59.55;;;19.60;;
609;SDS011;292;48.800;9.216;2022-12-18T09:39:11;73.78;;;22.77;;
609;SDS011;292;48.800;9.216;2022-12-18T09:41:43;62.50;;;21.83;;
609;SDS011;292;48.800;9.216;2022-12-18T09:44:15;71.30;;;24.40;;
609;SDS011;292;48.800;9.216;2022-12-18T09:46:47;63.28;;;23.55;;
609;SDS011;292;48.800;9.216;2022-12-18T09:49:18;68.47;;;23.73;;
609;SDS011;292;48.800;9.216;2022-12-18T09:51:50;58.80;;;23.02;;
609;SDS011;292;48.800;9.216;2022-12-18T09:54:25;63.60;;;22.20;;
609;SDS011;292;48.800;9.216;2022-12-18T09:56:57;67.50;;;21.42;;
609;SDS011;292;48.800;9.216;2022-12-18T09:59:25;67.38;;;22.08;;
609;SDS011;292;48.800;9.216;2022-12-18T10:01:57;63.63;;;19.80;;
609;SDS011;292;48.800;9.216;2022-12-18T10:04:24;64.07;;;21.92;;
609;SDS011;292;48.800;9.216;2022-12-18T10:06:58;67.22;;;23.33;;
609;SDS011;292;48.800;9.216;2022-12-18T10:09:33;68.45;;;23.27;;
609;SDS011;292;48.800;9.216;2022-12-18T10:12:07;68.85;;;24.15;;
609;SDS011;292;48.800;9.216;2022-12-18T10:14:41;66.50;;;23.77;;
609;SDS011;292;48.800;9.216;2022-12-18T10:17:14;64.97;;;22.63;;
609;SDS011;292;48.800;9.216;2022-12-18T10:19:50;62.95;;;22.13;;
609;SDS011;292;48.800;9.216;2022-12-18T10:22:25;61.45;;;21.98;;
609;SDS011;292;48.800;9.216;2022-12-18T10:25:01;72.40;;;23.33;;
609;SDS011;292;48.800;9.216;2022-12-18T10:27:31;64.18;;;22.95;;
609;SDS011;292;48.800;9.216;2022-12-18T10:29:58;65.53;;;24.30;;
609;SDS011;292;48.800;9.216;2022-12-18T10:32:28;60.30;;;23.10;;
609;SDS011;292;48.800;9.216;2022-12-18T10:34:57;57.55;;;20.50;;
609;SDS011;292;48.800;9.216;2022-12-18T10:37:26;67.97;;;20.88;;
609;SDS011;292;48.800;9.216;2022-12-18T10:42:41;56.00;;;21.30;;
609;SDS011;292;48.800;9.216;2022-12-18T10:45:10;65.70;;;22.40;;
609;SDS011;292;48.800;9.216;2022-12-18T10:47:41;54.67;;;21.23;;
609;SDS011;292;48.800;9.216;2022-12-18T10:50:18;73.18;;;22.77;;
609;SDS011;292;48.800;9.216;2022-12-18T10:52:55;53.70;;;20.45;;
609;SDS011;292;48.800;9.216;2022-12-18T10:55:27;58.42;;;20.92;;
609;SDS011;292;48.800;9.216;2022-12-18T10:58:12;59.20;;;21.00;;
609;SDS011;292;48.800;9.216;2022-12-18T11:00:43;61.13;;;21.15;;
609;SDS011;292;48.800;9.216;2022-12-18T11:06:04;64.32;;;22.98;;
609;SDS011;292;48.800;9.216;2022-12-18T11:08:34;68.30;;;23.42;;
609;SDS011;292;48.800;9.216;2022-12-18T11:11:02;71.57;;;23.88;;
609;SDS011;292;48.800;9.216;2022-12-18T11:13:34;59.90;;;22.73;;
609;SDS011;292;48.800;9.216;2022-12-18T11:16:02;65.22;;;23.27;;
609;SDS011;292;48.800;9.216;2022-12-18T11:18:30;55.90;;;18.40;;
609;SDS011;292;48.800;9.216;2022-12-18T11:21:00;60.03;;;22.30;;
609;SDS011;292;48.800;9.216;2022-12-18T11:23:36;65.57;;;23.60;;
609;SDS011;292;48.800;9.216;2022-12-18T11:26:10;63.20;;;23.25;;
609;SDS011;292;48.800;9.216;2022-12-18T11:28:39;66.70;;;24.35;;
609;SDS011;292;48.800;9.216;2022-12-18T11:31:17;72.88;;;22.55;;
609;SDS011;292;48.800;9.216;2022-12-18T11:33:49;64.03;;;23.40;;
609;SDS011;292;48.800;9.216;2022-12-18T11:36:24;55.97;;;19.95;;
609;SDS011;292;48.800;9.216;2022-12-18T11:38:56;59.13;;;20.90;;
609;SDS011;292;48.800;9.216;2022-12-18T11:41:32;62.65;;;20.92;;
609;SDS011;292;48.800;9.216;2022-12-18T11:44:20;62.10;;;21.40;;
609;SDS011;292;48.800;9.216;2022-12-18T11:46:52;66.30;;;22.25;;
609;SDS011;292;48.800;9.216;2022-12-18T11:49:26;54.15;;;19.70;;
609;SDS011;292;48.800;9.216;2022-12-18T11:52:00;57.10;;;20.77;;
609;SDS011;292;48.800;9.216;2022-12-18T11:54:32;63.10;;;21.05;;
609;SDS011;292;48.800;9.216;2022-12-18T11:57:02;65.40;;;23.05;;
609;SDS011;292;48.800;9.216;2022-12-18T11:59:38;69.38;;;22.38;;
609;SDS011;292;48.800;9.216;2022-12-18T12:02:19;60.42;;;22.92;;
609;SDS011;292;48.800;9.216;2022-12-18T12:05:13;54.20;;;20.67;;
609;SDS011;292;48.800;9.216;2022-12-18T12:07:50;63.80;;;21.20;;
609;SDS011;292;48.800;9.216;2022-12-18T12:10:33;65.50;;;22.13;;
609;SDS011;292;48.800;9.216;2022-12-18T12:13:18;48.67;;;19.40;;
609;SDS011;292;48.800;9.216;2022-12-18T12:15:55;59.15;;;21.90;;
609;SDS011;292;48.800;9.216;2022-12-18T12:18:33;55.72;;;21.48;;
609;SDS011;292;48.800;9.216;2022-12-18T12:21:15;59.80;;;20.50;;
609;SDS011;292;48.800;9.216;2022-12-18T12:23:47;64.70;;;21.08;;
609;SDS011;292;48.800;9.216;2022-12-18T12:26:27;55.63;;;22.15;;
609;SDS011;292;48.800;9.216;2022-12-18T12:29:04;56.05;;;20.05;;
609;SDS011;292;48.800;9.216;2022-12-18T12:31:59;62.47;;;22.55;;
609;SDS011;292;48.800;9.216;2022-12-18T12:34:38;56.88;;;22.10;;
609;SDS011;292;48.800;9.216;2022-12-18T12:37:17;56.92;;;21.15;;
609;SDS011;292;48.800;9.216;2022-12-18T12:39:53;51.85;;;19.00;;
609;SDS011;292;48.800;9.216;2022-12-18T12:42:29;53.47;;;19.52;;
609;SDS011;292;48.800;9.216;2022-12-18T12:45:20;56.15;;;20.42;;
609;SDS011;292;48.800;9.216;2022-12-18T12:47:52;52.75;;;20.75;;
609;SDS011;292;48.800;9.216;2022-12-18T12:50:21;60.28;;;19.98;;
609;SDS011;292;48.800;9.216;2022-12-18T12:52:51;61.90;;;20.35;;
609;SDS011;292;48.800;9.216;2022-12-18T12:55:21;58.25;;;20.83;;
609;SDS011;292;48.800;9.216;2022-12-18T12:57:57;52.65;;;20.20;;
609;SDS011;292;48.800;9.216;2022-12-18T13:00:30;53.42;;;19.98;;
609;SDS011;292;48.800;9.216;2022-12-18T13:03:08;53.28;;;20.45;;
609;SDS011;292;48.800;9.216;2022-12-18T13:05:48;55.67;;;22.10;;
609;SDS011;292;48.800;9.216;2022-12-18T13:08:22;50.70;;;18.58;;
609;SDS011;292;48.800;9.216;2022-12-18T13:10:50;57.97;;;20.90;;
609;SDS011;292;48.800;9.216;2022-12-18T13:13:49;51.22;;;19.60;;
609;SDS011;292;48.800;9.216;2022-12-18T13:16:18;57.15;;;20.50;;
609;SDS011;292;48.800;9.216;2022-12-18T13:18:48;58.85;;;21.70;;
609;SDS011;292;48.800;9.216;2022-12-18T13:21:20;51.88;;;18.98;;
609;SDS011;292;48.800;9.216;2022-12-18T13:23:50;57.22;;;20.55;;
609;SDS011;292;48.800;9.216;2022-12-18T13:26:31;57.30;;;19.77;;
609;SDS011;292;48.800;9.216;2022-12-18T13:29:02;59.50;;;20.05;;
609;SDS011;292;48.800;9.216;2022-12-18T13:34:35;46.78;;;18.33;;
609;SDS011;292;48.800;9.216;2022-12-18T13:43:28;42.40;;;16.25;;
609;SDS011;292;48.800;9.216;2022-12-18T13:46:02;50.65;;;19.48;;
609;SDS011;292;48.800;9.216;2022-12-18T13:48:48;46.88;;;16.90;;
609;SDS011;292;48.800;9.216;2022-12-18T13:51:22;46.28;;;18.30;;
609;SDS011;292;48.800;9.216;2022-12-18T13:53:51;53.65;;;18.75;;
609;SDS011;292;48.800;9.216;2022-12-18T13:56:22;64.05;;;22.20;;
609;SDS011;292;48.800;9.216;2022-12-18T13:59:05;58.25;;;20.65;;
609;SDS011;292;48.800;9.216;2022-12-18T14:01:55;61.10;;;20.20;;
609;SDS011;292;48.800;9.216;2022-12-18T14:04:26;50.30;;;19.27;;
609;SDS011;292;48.800;9.216;2022-12-18T14:07:05;51.97;;;18.52;;
609;SDS011;292;48.800;9.216;2022-12-18T14:09:39;55.40;;;19.63;;
609;SDS011;292;48.800;9.216;2022-12-18T14:12:12;62.22;;;19.13;;
609;SDS011;292;48.800;9.216;2022-12-18T14:15:00;61.70;;;19.75;;
609;SDS011;292;48.800;9.216;2022-12-18T14:17:30;62.08;;;22.67;;
609;SDS011;292;48.800;9.216;2022-12-18T14:19:58;57.60;;;20.25;;
609;SDS011;292;48.800;9.216;2022-12-18T14:22:26;66.15;;;21.88;;
609;SDS011;292;48.800;9.216;2022-12-18T14:25:14;66.18;;;22.45;;
609;SDS011;292;48.800;9.216;2022-12-18T14:27:44;56.55;;;18.20;;
609;SDS011;292;48.800;9.216;2022-12-18T14:30:23;64.97;;;20.50;;
609;SDS011;292;48.800;9.216;2022-12-18T14:35:38;65.70;;;22.33;;
609;SDS011;292;48.800;9.216;2022-12-18T14:38:20;62.30;;;21.52;;
609;SDS011;292;48.800;9.216;2022-12-18T14:40:55;57.10;;;21.02;;
609;SDS011;292;48.800;9.216;2022-12-18T14:43:26;60.70;;;20.77;;
609;SDS011;292;48.800;9.216;2022-12-18T14:45:55;54.35;;;19.58;;
609;SDS011;292;48.800;9.216;2022-12-18T14:48:30;58.40;;;20.85;;
609;SDS011;292;48.800;9.216;2022-12-18T14:51:04;61.50;;;21.40;;
609;SDS011;292;48.800;9.216;2022-12-18T14:53:44;65.82;;;21.05;;
609;SDS011;292;48.800;9.216;2022-12-18T14:56:14;54.95;;;19.90;;
609;SDS011;292;48.800;9.216;2022-12-18T14:58:44;59.13;;;21.50;;
609;SDS011;292;48.800;9.216;2022-12-18T15:04:04;67.40;;;23.00;;
609;SDS011;292;48.800;9.216;2022-12-18T15:06:50;70.38;;;22.30;;
609;SDS011;292;48.800;9.216;2022-12-18T15:09:31;64.70;;;23.50;;
609;SDS011;292;48.800;9.216;2022-12-18T15:11:58;71.85;;;22.75;;
609;SDS011;292;48.800;9.216;2022-12-18T15:14:34;68.75;;;21.35;;
609;SDS011;292;48.800;9.216;2022-12-18T15:17:06;65.28;;;22.65;;
609;SDS011;292;48.800;9.216;2022-12-18T15:19:44;62.67;;;20.33;;
609;SDS011;292;48.800;9.216;2022-12-18T15:22:24;66.93;;;20.40;;
609;SDS011;292;48.800;9.216;2022-12-18T15:24:53;60.25;;;20.38;;
609;SDS011;292;48.800;9.216;2022-12-18T15:27:22;64.35;;;21.70;;
609;SDS011;292;48.800;9.216;2022-12-18T15:32:47;65.43;;;21.70;;
609;SDS011;292;48.800;9.216;2022-12-18T15:35:17;71.93;;;23.67;;
609;SDS011;292;48.800;9.216;2022-12-18T15:37:46;83.95;;;25.75;;
609;SDS011;292;48.800;9.216;2022-12-18T15:40:14;76.00;;;24.35;;
609;SDS011;292;48.800;9.216;2022-12-18T15:42:44;71.57;;;23.23;;
609;SDS011;292;48.800;9.216;2022-12-18T15:45:30;69.03;;;23.77;;
609;SDS011;292;48.800;9.216;2022-12-18T15:47:58;80.38;;;25.98;;
609;SDS011;292;48.800;9.216;2022-12-18T15:50:27;74.90;;;24.13;;
609;SDS011;292;48.800;9.216;2022-12-18T15:52:55;79.45;;;25.35;;
609;SDS011;292;48.800;9.216;2022-12-18T15:55:22;68.72;;;23.48;;
609;SDS011;292;48.800;9.216;2022-12-18T15:58:08;72.53;;;22.65;;
609;SDS011;292;48.800;9.216;2022-12-18T16:00:37;78.57;;;23.13;;
609;SDS011;292;48.800;9.216;2022-12-18T16:03:06;73.68;;;24.58;;